Time;durP1;ratioP1;P1;durP2;ratioP2;P2;SDS_P1;SDS_P2;PMS_P1;PMS_P2;Temp;Humidity;BMP_temperature;BMP_pressure;BME280_temperature;BME280_humidity;BME280_pressure;Samples;Min_cycle;Max_cycle;Signal;HPM_P1;HPM_P2
2024/04/16 05:04:25;;;;;;;;;;;;;;;7.92;100.00;98983.07;1858441;76;20456;-75
2024/04/16 05:06:51;;;;;;;;;;;;;;;7.94;100.00;98972.98;1817947;77;20207;-71
2024/04/16 05:09:17;;;;;;;;;;;;;;;8.01;100.00;98975.53;1809947;78;20443;-69
2024/04/16 05:11:44;;;;;;;;;;;;;;;8.12;100.00;98981.34;1823588;78;20370;-69
2024/04/16 05:14:11;;;;;;;;;;;;;;;8.25;100.00;98982.25;1791629;79;20109;-77
2024/04/16 05:16:37;;;;;;;;;;;;;;;8.43;100.00;98986.74;1759187;80;20139;-73
2024/04/16 05:19:04;;;;;;;;;;;;;;;8.63;100.00;99002.34;1790146;80;20116;-78
2024/04/16 05:21:30;;;;;;;;;;;;;;;8.82;100.00;99008.45;1785029;80;20468;-72
2024/04/16 05:23:57;;;;;;;;;;;;;;;9.03;100.00;98999.27;1780685;79;20121;-73
2024/04/16 05:26:26;;;;;;;;;;;;;;;9.26;100.00;98995.12;1767378;80;20394;-75
2024/04/16 05:28:52;;;;;;;;;;;;;;;9.56;100.00;98989.63;1787610;80;20108;-77
2024/04/16 05:31:19;;;;;;;;;;;;;;;9.99;100.00;98984.88;1785034;80;20382;-76
2024/04/16 05:33:45;;;;;;;;;;;;;;;10.49;100.00;98978.67;1764661;81;20159;-70
2024/04/16 05:36:12;;;;;;;;;;;;;;;10.93;100.00;98979.78;1746500;81;20106;-72
2024/04/16 05:38:44;;;;;;;;;;;;;;;11.19;100.00;98972.17;1748346;81;20170;-80
2024/04/16 05:41:10;;;;;;;;;;;;;;;11.41;100.00;98962.70;1759720;81;20121;-72
2024/04/16 05:43:37;;;;;;;;;;;;;;;11.60;100.00;98968.97;1758730;81;20142;-70
2024/04/16 05:46:04;;;;;;;;;;;;;;;11.69;100.00;98968.73;1775476;80;20151;-70
2024/04/16 05:48:30;;;;;;;;;;;;;;;11.75;100.00;98963.05;1769726;80;20133;-69
2024/04/16 05:50:57;;;;;;;;;;;;;;;11.81;100.00;98969.60;1787428;80;20159;-71
2024/04/16 05:53:23;;;;;;;;;;;;;;;11.88;100.00;98963.80;1795856;79;20092;-70
2024/04/16 05:55:51;;;;;;;;;;;;;;;11.97;100.00;98968.77;1796794;79;20140;-75
2024/04/16 05:58:18;;;;;;;;;;;;;;;12.14;100.00;98968.24;1777427;80;20213;-72
2024/04/16 06:00:44;;;;;;;;;;;;;;;12.38;100.00;98962.86;1773340;80;20405;-73
2024/04/16 06:03:10;;;;;;;;;;;;;;;12.68;100.00;98961.66;1773664;80;20096;-71
2024/04/16 06:05:37;;;;;;;;;;;;;;;12.94;100.00;98963.91;1769191;80;20156;-68
2024/04/16 06:08:04;;;;;;;;;;;;;;;13.09;100.00;98963.95;1760165;81;20156;-69
2024/04/16 06:10:30;;;;;;;;;;;;;;;13.16;100.00;98953.37;1757836;81;20101;-70
2024/04/16 06:12:56;;;;;;;;;;;;;;;13.18;100.00;98952.76;1762557;81;20130;-74
2024/04/16 06:15:23;;;;;;;;;;;;;;;13.14;100.00;98943.48;1760258;81;20156;-67
2024/04/16 06:17:49;;;;;;;;;;;;;;;13.10;100.00;98942.56;1761968;81;20188;-68
2024/04/16 06:20:16;;;;;;;;;;;;;;;13.02;100.00;98940.10;1745235;82;20440;-70
2024/04/16 06:22:43;;;;;;;;;;;;;;;12.97;100.00;98942.27;1753280;82;20146;-68
2024/04/16 06:25:10;;;;;;;;;;;;;;;12.90;100.00;98937.67;1752102;82;20177;-69
2024/04/16 06:27:38;;;;;;;;;;;;;;;12.80;100.00;98931.55;1743795;82;20408;-69
2024/04/16 06:30:06;;;;;;;;;;;;;;;12.71;100.00;98931.86;1748395;82;20141;-69
2024/04/16 06:32:33;;;;;;;;;;;;;;;12.61;100.00;98930.47;1750103;82;20361;-68
2024/04/16 06:35:00;;;;;;;;;;;;;;;12.53;100.00;98925.05;1760063;80;20103;-69
2024/04/16 06:37:26;;;;;;;;;;;;;;;12.45;100.00;98919.61;1769909;80;20402;-68
2024/04/16 06:39:53;;;;;;;;;;;;;;;12.35;100.00;98925.25;1767413;80;20097;-69
2024/04/16 06:42:19;;;;;;;;;;;;;;;12.25;100.00;98923.86;1739139;82;20484;-69
2024/04/16 06:44:46;;;;;;;;;;;;;;;12.19;100.00;98928.26;1752390;82;20332;-68
2024/04/16 06:47:12;;;;;;;;;;;;;;;12.12;100.00;98929.70;1728974;82;20449;-69
2024/04/16 06:49:41;;;;;;;;;;;;;;;12.08;100.00;98928.75;1742957;82;20454;-68
2024/04/16 06:52:08;;;;;;;;;;;;;;;12.01;100.00;98933.16;1752157;82;20341;-70
2024/04/16 06:54:41;;;;;;;;;;;;;;;11.99;100.00;98927.73;1743324;82;20134;-71
2024/04/16 06:57:08;;;;;;;;;;;;;;;11.98;100.00;98933.42;1746077;82;20329;-70
2024/04/16 06:59:34;;;;;;;;;;;;;;;11.97;100.00;98931.77;1747428;81;20214;-71
2024/04/16 07:02:01;;;;;;;;;;;;;;;11.96;100.00;98931.89;1769595;80;20136;-69
2024/04/16 07:04:27;;;;;;;;;;;;;;;11.91;100.00;98932.73;1778616;79;20576;-67
2024/04/16 07:06:58;;;;;;;;;;;;;;;11.88;100.00;98929.88;1780245;80;20155;-72
2024/04/16 07:09:28;;;;;;;;;;;;;;;11.81;100.00;98926.09;1747858;80;20157;-72
2024/04/16 07:11:54;;;;;;;;;;;;;;;11.75;100.00;98931.75;1741296;82;20202;-68
2024/04/16 07:14:21;;;;;;;;;;;;;;;11.71;100.00;98917.30;1745304;81;20161;-68
2024/04/16 07:16:47;;;;;;;;;;;;;;;11.64;100.00;98918.25;1780016;79;20144;-69
2024/04/16 07:19:16;;;;;;;;;;;;;;;11.65;100.00;98919.91;1775468;79;20106;-71
2024/04/16 07:21:43;;;;;;;;;;;;;;;11.69;100.00;98922.62;1776897;79;20258;-72
2024/04/16 07:24:10;;;;;;;;;;;;;;;11.73;100.00;98928.44;1749284;81;20574;-70
2024/04/16 07:26:36;;;;;;;;;;;;;;;11.79;100.00;98923.25;1772384;79;20136;-69
2024/04/16 07:29:04;;;;;;;;;;;;;;;11.85;100.00;98919.69;1788639;79;20167;-71
2024/04/16 07:31:31;;;;;;;;;;;;;;;11.93;100.00;98926.44;1787118;79;20092;-69
2024/04/16 07:33:57;;;;;;;;;;;;;;;12.00;100.00;98920.23;1785284;80;20135;-75
2024/04/16 07:36:24;;;;;;;;;;;;;;;12.09;100.00;98922.59;1786720;80;21050;-74
2024/04/16 07:38:52;;;;;;;;;;;;;;;12.15;100.00;98918.19;1773448;80;20131;-78
2024/04/16 07:41:20;;;;;;;;;;;;;;;12.20;100.00;98919.48;1785205;80;20111;-69
2024/04/16 07:43:46;;;;;;;;;;;;;;;12.24;100.00;98917.45;1747185;82;20127;-73
2024/04/16 07:46:12;;;;;;;;;;;;;;;12.22;100.00;98920.19;1763258;81;20136;-72
2024/04/16 07:48:41;;;;;;;;;;;;;;;12.18;100.00;98917.47;1775023;79;20132;-71
2024/04/16 07:51:24;;;;;;;;;;;;;;;12.14;100.00;98917.36;1790796;80;20186;-75
2024/04/16 07:53:50;;;;;;;;;;;;;;;12.05;100.00;98905.52;1780034;79;20161;-72
2024/04/16 07:56:16;;;;;;;;;;;;;;;12.00;100.00;98895.45;1740125;81;20134;-69
2024/04/16 07:58:45;;;;;;;;;;;;;;;12.02;100.00;98901.38;1745222;81;20110;-72
2024/04/16 08:01:14;;;;;;;;;;;;;;;12.06;100.00;98911.92;1753478;81;20186;-68
2024/04/16 08:03:40;;;;;;;;;;;;;;;12.08;100.00;98902.19;1774750;80;20452;-68
2024/04/16 08:06:07;;;;;;;;;;;;;;;12.07;100.00;98905.75;1767869;79;20135;-68
2024/04/16 08:08:33;;;;;;;;;;;;;;;12.09;100.00;98907.76;1782535;81;20116;-69
2024/04/16 08:11:13;;;;;;;;;;;;;;;12.11;100.00;98907.64;1765427;81;20089;-69
2024/04/16 08:13:39;;;;;;;;;;;;;;;12.11;100.00;98920.69;1753087;81;20169;-71
2024/04/16 08:16:07;;;;;;;;;;;;;;;12.05;100.00;98923.30;1769915;80;20166;-70
2024/04/16 08:18:33;;;;;;;;;;;;;;;11.93;100.00;98916.00;1756368;82;20242;-70
2024/04/16 08:21:00;;;;;;;;;;;;;;;11.88;100.00;98929.05;1753004;82;20149;-72
2024/04/16 08:23:26;;;;;;;;;;;;;;;11.90;100.00;98925.38;1779669;79;20293;-70
2024/04/16 08:26:01;;;;;;;;;;;;;;;11.91;100.00;98917.91;1785152;79;20235;-69
2024/04/16 08:28:30;;;;;;;;;;;;;;;11.99;100.00;98906.39;1775723;80;20109;-71
2024/04/16 08:30:58;;;;;;;;;;;;;;;12.09;100.00;98913.45;1787651;80;20127;-70
2024/04/16 08:33:25;;;;;;;;;;;;;;;12.12;100.00;98922.34;1788722;80;20183;-69
2024/04/16 08:35:51;;;;;;;;;;;;;;;12.14;100.00;98911.31;1784145;80;20441;-71
2024/04/16 08:38:18;;;;;;;;;;;;;;;12.22;100.00;98900.61;1757216;80;20148;-69
2024/04/16 08:40:47;;;;;;;;;;;;;;;12.34;100.00;98900.10;1772582;80;20131;-70
2024/04/16 08:43:15;;;;;;;;;;;;;;;12.46;100.00;98892.55;1771354;80;20237;-74
2024/04/16 08:45:45;;;;;;;;;;;;;;;12.67;100.00;98885.57;1757241;81;20125;-71
2024/04/16 08:48:12;;;;;;;;;;;;;;;12.90;100.00;98888.03;1765205;81;20102;-70
2024/04/16 08:50:40;;;;;;;;;;;;;;;13.08;100.00;98905.27;1773080;80;20116;-74
2024/04/16 08:53:08;;;;;;;;;;;;;;;13.27;100.00;98907.52;1770720;79;20211;-71
2024/04/16 08:55:34;;;;;;;;;;;;;;;13.38;100.00;98900.55;1765373;81;20136;-70
2024/04/16 08:58:00;;;;;;;;;;;;;;;13.47;100.00;98908.44;1757126;81;20098;-70
2024/04/16 09:00:27;;;;;;;;;;;;;;;13.58;100.00;98904.91;1751387;81;20454;-68
2024/04/16 09:02:54;;;;;;;;;;;;;;;13.69;100.00;98895.63;1756022;81;20193;-70
2024/04/16 09:05:20;;;;;;;;;;;;;;;13.72;100.00;98892.75;1759864;81;20109;-72
2024/04/16 09:07:46;;;;;;;;;;;;;;;13.79;100.00;98886.50;1744466;82;20426;-70
2024/04/16 09:10:15;;;;;;;;;;;;;;;13.94;100.00;98883.38;1743085;82;20165;-68
2024/04/16 09:12:43;;;;;;;;;;;;;;;14.02;100.00;98894.45;1748140;82;20394;-73
2024/04/16 09:15:12;;;;;;;;;;;;;;;13.98;100.00;98895.72;1746462;82;21161;-74
2024/04/16 09:17:47;;;;;;;;;;;;;;;13.98;100.00;98899.16;1741478;82;20162;-70
2024/04/16 09:20:21;;;;;;;;;;;;;;;14.03;100.00;98898.24;1748936;82;20412;-71
2024/04/16 09:22:48;;;;;;;;;;;;;;;14.05;100.00;98892.88;1731526;82;20130;-73
2024/04/16 09:25:15;;;;;;;;;;;;;;;14.08;100.00;98887.85;1721387;82;20456;-76
2024/04/16 09:27:49;;;;;;;;;;;;;;;14.16;100.00;98889.31;1741571;82;20126;-71
2024/04/16 09:30:15;;;;;;;;;;;;;;;14.17;100.00;98880.50;1728258;82;20119;-71
2024/04/16 09:32:44;;;;;;;;;;;;;;;14.15;100.00;98885.04;1744129;82;20090;-73
2024/04/16 09:35:11;;;;;;;;;;;;;;;14.22;100.00;98884.84;1741398;82;20122;-71
2024/04/16 09:37:37;;;;;;;;;;;;;;;14.33;100.00;98882.09;1747460;82;20436;-73
2024/04/16 09:40:04;;;;;;;;;;;;;;;14.44;100.00;98880.66;1742016;82;20149;-71
2024/04/16 09:42:31;;;;;;;;;;;;;;;14.58;100.00;98873.70;1742238;82;20201;-70
2024/04/16 09:44:58;;;;;;;;;;;;;;;14.75;100.00;98866.09;1745769;82;20130;-70
2024/04/16 09:47:25;;;;;;;;;;;;;;;14.86;100.00;98857.56;1735566;82;20154;-69
2024/04/16 09:49:56;;;;;;;;;;;;;;;14.96;100.00;98857.06;1745893;82;20130;-70
2024/04/16 09:52:20;;;;;;;;;;;;;;;15.03;100.00;98857.80;1747590;82;20111;-75
2024/04/16 09:54:48;;;;;;;;;;;;;;;15.09;100.00;98868.55;1752354;82;20106;-71
2024/04/16 09:57:15;;;;;;;;;;;;;;;15.10;100.00;98864.14;1745321;81;20126;-68
2024/04/16 09:59:41;;;;;;;;;;;;;;;15.13;100.00;98862.05;1746346;82;20923;-68
2024/04/16 10:02:11;;;;;;;;;;;;;;;15.23;100.00;98853.64;1741541;82;20134;-71
2024/04/16 10:04:37;;;;;;;;;;;;;;;15.41;100.00;98849.78;1738629;82;21006;-68
2024/04/16 10:07:05;;;;;;;;;;;;;;;15.61;100.00;98835.61;1746487;82;20170;-71
2024/04/16 10:09:32;;;;;;;;;;;;;;;15.76;100.00;98828.55;1753096;82;20523;-69
2024/04/16 10:11:59;;;;;;;;;;;;;;;15.86;100.00;98822.27;1743704;82;20131;-73
2024/04/16 10:14:28;;;;;;;;;;;;;;;15.89;100.00;98810.64;1744140;82;20163;-73
2024/04/16 10:16:55;;;;;;;;;;;;;;;15.88;99.26;98807.20;1727346;82;20099;-81
2024/04/16 10:19:21;;;;;;;;;;;;;;;15.88;99.19;98807.69;1743837;82;20134;-69
2024/04/16 10:21:50;;;;;;;;;;;;;;;15.86;99.98;98811.77;1748001;82;20126;-72
2024/04/16 10:24:17;;;;;;;;;;;;;;;15.88;100.00;98830.82;1758147;82;20122;-70
2024/04/16 10:26:44;;;;;;;;;;;;;;;15.91;100.00;98827.90;1749767;82;20381;-71
2024/04/16 10:29:26;;;;;;;;;;;;;;;15.98;100.00;98832.07;1739542;81;20111;-74
2024/04/16 10:31:58;;;;;;;;;;;;;;;16.04;100.00;98822.74;1725877;82;20150;-73
2024/04/16 10:34:25;;;;;;;;;;;;;;;16.21;100.00;98835.88;1726633;82;20390;-72
2024/04/16 10:37:20;;;;;;;;;;;;;;;16.40;100.00;98842.75;1737450;82;20165;-78
2024/04/16 10:40:10;;;;;;;;;;;;;;;16.53;100.00;98845.82;1724900;82;20183;-75
2024/04/16 10:42:37;;;;;;;;;;;;;;;16.59;100.00;98846.53;1736472;82;20126;-67
2024/04/16 10:45:04;;;;;;;;;;;;;;;16.67;100.00;98845.80;1737251;82;20511;-72
2024/04/16 10:47:31;;;;;;;;;;;;;;;16.75;100.00;98838.47;1735499;82;20111;-76
2024/04/16 10:49:58;;;;;;;;;;;;;;;16.81;100.00;98840.45;1734178;82;20103;-71
2024/04/16 10:52:24;;;;;;;;;;;;;;;16.88;100.00;98839.68;1749671;82;20195;-74
2024/04/16 10:54:52;;;;;;;;;;;;;;;16.97;100.00;98838.75;1751781;82;20392;-75
2024/04/16 10:57:19;;;;;;;;;;;;;;;17.03;100.00;98832.54;1732284;82;20165;-77
2024/04/16 10:59:48;;;;;;;;;;;;;;;17.06;99.51;98829.11;1747046;82;20392;-68
2024/04/16 11:02:18;;;;;;;;;;;;;;;17.06;99.49;98827.80;1749493;81;20111;-69
2024/04/16 11:04:45;;;;;;;;;;;;;;;17.02;99.73;98840.92;1741008;82;20106;-69
2024/04/16 11:07:11;;;;;;;;;;;;;;;16.94;99.36;98836.43;1741224;82;20446;-73
2024/04/16 11:09:38;;;;;;;;;;;;;;;16.88;100.00;98841.00;1731265;82;20140;-75
2024/04/16 11:12:05;;;;;;;;;;;;;;;16.86;100.00;98831.61;1731801;82;20128;-75
2024/04/16 11:14:31;;;;;;;;;;;;;;;16.86;100.00;98835.55;1738059;82;20429;-72
2024/04/16 11:17:04;;;;;;;;;;;;;;;16.83;100.00;98833.23;1704631;82;20450;-81
2024/04/16 11:19:33;;;;;;;;;;;;;;;16.78;100.00;98836.84;1718436;81;20095;-81
2024/04/16 11:22:10;;;;;;;;;;;;;;;16.68;100.00;98827.73;1718384;82;20107;-83
2024/04/16 11:24:37;;;;;;;;;;;;;;;16.59;100.00;98826.81;1725307;82;20111;-82
2024/04/16 11:27:04;;;;;;;;;;;;;;;16.56;100.00;98816.61;1710458;82;20426;-76
2024/04/16 11:29:30;;;;;;;;;;;;;;;16.62;100.00;98815.17;1691402;82;20125;-76
2024/04/16 11:31:57;;;;;;;;;;;;;;;16.64;100.00;98813.25;1700593;82;20103;-72
2024/04/16 11:34:24;;;;;;;;;;;;;;;16.70;100.00;98806.55;1738237;82;20120;-71
2024/04/16 11:36:52;;;;;;;;;;;;;;;16.80;100.00;98808.56;1737658;82;20108;-73
2024/04/16 11:39:22;;;;;;;;;;;;;;;16.94;100.00;98796.98;1726538;82;20368;-77
2024/04/16 11:41:49;;;;;;;;;;;;;;;17.12;100.00;98794.78;1720578;82;20172;-82
2024/04/16 11:44:19;;;;;;;;;;;;;;;17.25;100.00;98798.59;1734225;81;20173;-72
2024/04/16 11:46:50;;;;;;;;;;;;;;;17.35;100.00;98791.91;1693455;84;20162;-74
2024/04/16 11:49:17;;;;;;;;;;;;;;;17.45;100.00;98791.77;1730647;82;20649;-74
2024/04/16 11:51:43;;;;;;;;;;;;;;;17.55;100.00;98791.16;1696425;82;20094;-73
2024/04/16 11:54:12;;;;;;;;;;;;;;;17.65;100.00;98788.72;1707919;83;20139;-73
2024/04/16 11:56:40;;;;;;;;;;;;;;;17.78;100.00;98788.26;1674073;83;20105;-80
2024/04/16 11:59:07;;;;;;;;;;;;;;;17.88;100.00;98792.06;1730121;82;20111;-75
2024/04/16 12:01:34;;;;;;;;;;;;;;;17.94;100.00;98785.66;1733984;82;20378;-81
2024/04/16 12:04:00;;;;;;;;;;;;;;;18.02;100.00;98790.58;1729479;82;20111;-78
2024/04/16 12:06:28;;;;;;;;;;;;;;;18.05;100.00;98785.80;1726373;81;20564;-71
2024/04/16 12:08:56;;;;;;;;;;;;;;;18.02;100.00;98792.72;1750741;82;20158;-78
2024/04/16 12:11:23;;;;;;;;;;;;;;;17.98;100.00;98780.39;1746408;82;20172;-73
2024/04/16 12:13:54;;;;;;;;;;;;;;;17.97;100.00;98787.97;1740573;82;20499;-74
2024/04/16 12:16:19;;;;;;;;;;;;;;;17.92;100.00;98790.75;1725453;82;20134;-69
2024/04/16 12:18:54;;;;;;;;;;;;;;;17.81;100.00;98793.20;1750956;82;20099;-75
2024/04/16 12:21:15;;;;;;;;;;;;;;;17.75;100.00;98788.58;1748623;82;20419;-72
2024/04/16 12:23:44;;;;;;;;;;;;;;;17.69;100.00;98786.59;1752065;82;20086;-72
2024/04/16 12:26:10;;;;;;;;;;;;;;;17.67;100.00;98784.61;1751073;81;20157;-70
2024/04/16 12:28:39;;;;;;;;;;;;;;;17.72;100.00;98777.05;1730535;82;20432;-76
2024/04/16 12:31:08;;;;;;;;;;;;;;;17.80;100.00;98767.86;1727160;82;20596;-70
2024/04/16 12:33:35;;;;;;;;;;;;;;;17.89;100.00;98763.42;1744676;82;20193;-75
2024/04/16 12:36:04;;;;;;;;;;;;;;;18.00;100.00;98759.13;1748540;82;20126;-78
2024/04/16 12:38:31;;;;;;;;;;;;;;;18.11;100.00;98757.98;1752119;82;20134;-70
2024/04/16 12:40:59;;;;;;;;;;;;;;;18.15;100.00;98754.03;1752248;82;20471;-71
2024/04/16 12:43:25;;;;;;;;;;;;;;;18.16;100.00;98746.46;1743615;82;20102;-73
2024/04/16 12:45:56;;;;;;;;;;;;;;;18.19;100.00;98750.09;1721300;82;20111;-69
2024/04/16 12:48:30;;;;;;;;;;;;;;;18.19;100.00;98745.64;1736283;82;20107;-71
2024/04/16 12:51:05;;;;;;;;;;;;;;;18.20;100.00;98734.11;1734923;82;20152;-71
2024/04/16 12:53:33;;;;;;;;;;;;;;;18.19;100.00;98728.52;1735052;82;20111;-78
2024/04/16 12:56:00;;;;;;;;;;;;;;;18.19;100.00;98723.73;1752418;82;20112;-72
2024/04/16 12:58:28;;;;;;;;;;;;;;;18.19;100.00;98719.29;1752481;82;20087;-77
2024/04/16 13:00:55;;;;;;;;;;;;;;;18.21;99.85;98730.48;1730566;82;20158;-71
2024/04/16 13:03:22;;;;;;;;;;;;;;;18.24;99.66;98735.92;1750715;82;20119;-70
2024/04/16 13:05:48;;;;;;;;;;;;;;;18.24;99.24;98731.48;1751401;82;20392;-72
2024/04/16 13:08:14;;;;;;;;;;;;;;;18.23;98.99;98726.38;1752354;82;20151;-72
2024/04/16 13:10:43;;;;;;;;;;;;;;;18.22;99.62;98716.82;1752847;82;20103;-71
2024/04/16 13:13:09;;;;;;;;;;;;;;;18.23;100.00;98721.09;1745644;82;20107;-72
2024/04/16 13:15:36;;;;;;;;;;;;;;;18.23;99.97;98713.20;1751544;81;20133;-71
2024/04/16 13:18:09;;;;;;;;;;;;;;;18.23;100.00;98714.52;1752462;82;20091;-71
2024/04/16 13:20:38;;;;;;;;;;;;;;;18.22;100.00;98708.91;1749174;82;20134;-70
2024/04/16 13:23:09;;;;;;;;;;;;;;;18.21;99.71;98711.22;1748079;81;20091;-69
2024/04/16 13:25:35;;;;;;;;;;;;;;;18.20;99.82;98714.84;1723738;82;20226;-71
2024/04/16 13:28:06;;;;;;;;;;;;;;;18.18;100.00;98707.60;1745703;82;20110;-70
2024/04/16 13:30:34;;;;;;;;;;;;;;;18.18;100.00;98704.47;1744629;82;20412;-73
2024/04/16 13:33:03;;;;;;;;;;;;;;;18.16;100.00;98707.77;1745653;82;20107;-72
2024/04/16 13:35:30;;;;;;;;;;;;;;;18.10;99.92;98701.84;1749006;82;20172;-72
2024/04/16 13:37:57;;;;;;;;;;;;;;;18.07;100.00;98705.30;1745194;82;20114;-71
2024/04/16 13:40:25;;;;;;;;;;;;;;;18.05;100.00;98699.38;1743785;82;20210;-71
2024/04/16 13:42:51;;;;;;;;;;;;;;;18.01;100.00;98696.25;1745371;82;20389;-72
2024/04/16 13:45:18;;;;;;;;;;;;;;;17.97;100.00;98699.73;1740186;82;20151;-74
2024/04/16 13:47:45;;;;;;;;;;;;;;;17.96;100.00;98702.53;1742103;82;20187;-73
2024/04/16 13:50:14;;;;;;;;;;;;;;;17.95;100.00;98691.66;1747773;82;20134;-71
2024/04/16 13:52:42;;;;;;;;;;;;;;;17.94;100.00;98692.66;1708204;83;20170;-73
2024/04/16 13:55:10;;;;;;;;;;;;;;;17.95;100.00;98691.17;1747383;81;20138;-74
2024/04/16 13:57:39;;;;;;;;;;;;;;;17.98;100.00;98685.58;1737748;82;20171;-72
